createdAt,value
2019-05-06T00:00:00.639Z,96.04
2019-05-06T00:01:00.846Z,96.04
2019-05-06T00:02:01.052Z,96.20
2019-05-06T00:03:01.207Z,96.09
2019-05-06T00:04:01.405Z,95.57
2019-05-06T00:05:03.975Z,95.78
2019-05-06T00:06:03.807Z,95.89
2019-05-06T00:07:04.148Z,96.20
2019-05-06T00:08:03.927Z,96.03
2019-05-06T00:09:03.900Z,95.93
2019-05-06T00:10:05.640Z,96.55
2019-05-06T00:11:04.758Z,96.03
2019-05-06T00:12:04.001Z,95.93
2019-05-06T00:13:04.707Z,96.14
2019-05-06T00:14:04.293Z,96.76
2019-05-06T00:15:04.014Z,97.07
2019-05-06T00:16:04.678Z,96.24
2019-05-06T00:17:04.047Z,95.97
2019-05-06T00:18:05.002Z,97.12
2019-05-06T00:19:04.871Z,97.33
2019-05-06T00:20:05.368Z,97.95
2019-05-06T00:21:04.796Z,97.53
2019-05-06T00:22:05.744Z,96.91
2019-05-06T00:23:04.884Z,97.12
2019-05-06T00:24:05.063Z,97.06
2019-05-06T00:25:05.423Z,97.06
2019-05-06T00:26:06.398Z,97.12
2019-05-06T00:27:05.539Z,97.95
2019-05-06T00:28:06.192Z,97.95
2019-05-06T00:29:06.904Z,98.05
2019-05-06T00:30:06.043Z,98.57
2019-05-06T00:31:12.658Z,98.31
2019-05-06T00:32:08.375Z,97.58
2019-05-06T00:33:06.473Z,97.58
2019-05-06T00:34:06.640Z,97.37
2019-05-06T00:35:06.832Z,98.25
2019-05-06T00:36:07.007Z,97.89
2019-05-06T00:37:07.205Z,98.10
2019-05-06T00:38:07.412Z,97.99
2019-05-06T00:39:07.605Z,99.04
2019-05-06T00:40:07.807Z,98.93
2019-05-06T00:41:07.979Z,99.66
2019-05-06T00:42:08.159Z,98.83
2019-05-06T00:43:08.345Z,98.72
2019-05-06T00:44:08.518Z,99.04
2019-05-06T00:45:08.705Z,98.31
2019-05-06T00:46:08.884Z,97.99
2019-05-06T00:47:09.057Z,98.52
2019-05-06T00:48:09.227Z,98.14
2019-05-06T00:49:09.408Z,97.94
2019-05-06T00:50:09.598Z,98.83
2019-05-06T00:51:09.754Z,98.87
2019-05-06T00:52:09.899Z,99.18
2019-05-06T00:53:10.047Z,98.41
2019-05-06T00:54:10.228Z,98.56
2019-05-06T00:55:10.414Z,99.18
2019-05-06T00:56:10.586Z,99.35
2019-05-06T00:57:10.733Z,99.66
2019-05-06T00:58:10.897Z,99.04
2019-05-06T00:59:11.108Z,99.04
2019-05-06T01:00:13.463Z,99.04
2019-05-06T01:01:24.078Z,97.95
2019-05-06T01:02:14.124Z,97.43
2019-05-06T01:03:13.982Z,96.80
2019-05-06T01:04:13.939Z,96.08
2019-05-06T01:05:13.885Z,96.39
2019-05-06T01:06:14.217Z,96.39
2019-05-06T01:07:14.021Z,96.39
2019-05-06T01:08:14.137Z,95.25
2019-05-06T01:09:14.110Z,94.68
2019-05-06T01:10:14.426Z,94.62
2019-05-06T01:11:14.421Z,94.51
2019-05-06T01:12:14.424Z,95.08
2019-05-06T01:13:14.630Z,95.60
2019-05-06T01:14:14.878Z,96.22
2019-05-06T01:15:14.926Z,96.58
2019-05-06T01:16:15.717Z,96.79
2019-05-06T01:17:14.214Z,97.72
2019-05-06T01:18:14.415Z,97.72
2019-05-06T01:19:14.587Z,97.94
2019-05-06T01:20:14.766Z,97.52
2019-05-06T01:21:14.931Z,97.25
2019-05-06T01:22:16.099Z,96.89
2019-05-06T01:23:15.260Z,97.35
2019-05-06T01:24:15.410Z,97.04
2019-05-06T01:25:15.583Z,96.83
2019-05-06T01:26:15.757Z,97.77
2019-05-06T01:27:15.927Z,97.61
2019-05-06T01:28:16.120Z,98.08
2019-05-06T01:29:16.291Z,97.71
2019-05-06T01:30:16.490Z,97.71
2019-05-06T01:31:16.705Z,97.81
2019-05-06T01:32:16.874Z,97.92
2019-05-06T01:33:17.071Z,97.71
2019-05-06T01:34:17.263Z,97.75
2019-05-06T01:35:17.461Z,97.75
2019-05-06T01:36:17.619Z,98.28
2019-05-06T01:37:17.799Z,97.86
2019-05-06T01:38:17.982Z,98.69
2019-05-06T01:39:18.179Z,98.90
2019-05-06T01:40:18.378Z,98.80
2019-05-06T01:41:18.542Z,98.90
2019-05-06T01:42:18.743Z,98.49
2019-05-06T01:43:18.930Z,99.01
2019-05-06T01:44:19.123Z,99.32
2019-05-06T01:45:19.331Z,99.32
2019-05-06T01:46:19.530Z,99.11
2019-05-06T01:47:19.755Z,99.11
2019-05-06T01:48:19.956Z,98.80
2019-05-06T01:49:20.158Z,99.22
2019-05-06T01:50:20.338Z,99.32
2019-05-06T01:51:20.556Z,99.01
2019-05-06T01:52:20.708Z,99.43
2019-05-06T01:53:20.940Z,99.74
2019-05-06T01:54:21.133Z,99.74
2019-05-06T01:55:23.757Z,99.84
2019-05-06T01:56:21.526Z,99.43
2019-05-06T01:57:21.703Z,99.99
2019-05-06T01:58:24.104Z,99.99
2019-05-06T01:59:22.048Z,99.90
2019-05-06T02:00:23.724Z,99.74
2019-05-06T02:01:24.911Z,99.95
2019-05-06T02:02:23.851Z,99.63
2019-05-06T02:03:24.242Z,99.59
2019-05-06T02:04:24.491Z,99.84
2019-05-06T02:05:24.324Z,99.63
2019-05-06T02:06:24.954Z,99.74
2019-05-06T02:07:24.586Z,99.99
2019-05-06T02:08:24.421Z,99.84
2019-05-06T02:09:24.915Z,99.63
2019-05-06T02:10:24.066Z,99.99
2019-05-06T02:11:24.267Z,99.95
2019-05-06T02:12:24.729Z,99.43
2019-05-06T02:13:25.665Z,99.53
2019-05-06T02:14:24.820Z,99.63
2019-05-06T02:15:25.012Z,99.32
2019-05-06T02:16:25.156Z,99.63
2019-05-06T02:17:25.368Z,99.99
2019-05-06T02:18:25.560Z,99.84
2019-05-06T02:19:25.748Z,99.79
2019-05-06T02:20:25.927Z,99.95
2019-05-06T02:21:26.456Z,99.95
2019-05-06T02:22:27.331Z,99.95
2019-05-06T02:23:26.473Z,99.95
2019-05-06T02:24:26.638Z,99.99
2019-05-06T02:25:26.826Z,99.95
2019-05-06T02:26:26.997Z,99.84
2019-05-06T02:27:27.204Z,99.95
2019-05-06T02:28:27.396Z,99.43
2019-05-06T02:29:27.555Z,99.95
2019-05-06T02:30:27.713Z,99.95
2019-05-06T02:31:27.890Z,99.95
2019-05-06T02:32:31.605Z,99.99
2019-05-06T02:33:29.254Z,99.84
2019-05-06T02:34:28.386Z,99.99
2019-05-06T02:35:29.558Z,99.99
2019-05-06T02:36:28.658Z,99.99
2019-05-06T02:37:28.825Z,99.99
2019-05-06T02:38:39.160Z,99.99
2019-05-06T02:39:33.927Z,99.99
2019-05-06T02:40:29.505Z,99.99
2019-05-06T02:41:29.687Z,99.99
2019-05-06T02:42:29.895Z,99.99
2019-05-06T02:43:30.054Z,99.99
2019-05-06T02:44:33.381Z,99.99
2019-05-06T02:45:33.207Z,99.99
2019-05-06T02:46:33.515Z,99.99
2019-05-06T02:47:34.055Z,99.99
2019-05-06T02:48:33.557Z,99.99
2019-05-06T02:49:32.996Z,99.99
2019-05-06T02:50:33.924Z,99.99
2019-05-06T02:51:33.351Z,99.99
2019-05-06T02:52:33.049Z,99.99
2019-05-06T02:53:33.638Z,99.91
2019-05-06T02:54:34.580Z,99.55
2019-05-06T02:55:36.063Z,99.45
2019-05-06T02:56:33.531Z,99.50
2019-05-06T02:57:33.490Z,99.18
2019-05-06T02:58:33.789Z,99.35
2019-05-06T02:59:33.286Z,99.14
2019-05-06T03:00:34.082Z,98.93
2019-05-06T03:01:34.012Z,98.93
2019-05-06T03:02:43.004Z,98.83
2019-05-06T03:03:35.579Z,98.99
2019-05-06T03:04:33.814Z,98.99
2019-05-06T03:05:33.981Z,99.41
2019-05-06T03:06:34.179Z,98.78
2019-05-06T03:07:37.613Z,98.26
2019-05-06T03:08:35.477Z,98.47
2019-05-06T03:09:35.605Z,98.47
2019-05-06T03:10:34.748Z,97.74
2019-05-06T03:11:34.936Z,98.05
2019-05-06T03:12:36.121Z,97.33
2019-05-06T03:13:35.239Z,97.53
2019-05-06T03:14:35.402Z,97.43
2019-05-06T03:15:35.565Z,97.53
2019-05-06T03:16:35.717Z,97.64
2019-05-06T03:17:35.894Z,97.43
2019-05-06T03:18:36.075Z,97.43
2019-05-06T03:19:36.232Z,97.74
2019-05-06T03:20:36.416Z,97.85
2019-05-06T03:21:37.078Z,97.74
2019-05-06T03:22:37.815Z,97.89
2019-05-06T03:23:37.099Z,97.78
2019-05-06T03:24:37.270Z,97.78
2019-05-06T03:25:37.470Z,97.58
2019-05-06T03:26:37.628Z,97.52
2019-05-06T03:27:38.786Z,97.68
2019-05-06T03:28:37.950Z,97.83
2019-05-06T03:29:38.094Z,97.94
2019-05-06T03:30:38.271Z,97.83
2019-05-06T03:31:38.429Z,97.37
2019-05-06T03:33:16.850Z,97.83
2019-05-06T03:33:59.794Z,97.52
2019-05-06T03:35:00.646Z,98.04
2019-05-06T03:35:55.978Z,98.04
2019-05-06T03:36:48.020Z,98.56
2019-05-06T03:37:43.797Z,98.56
2019-05-06T03:38:42.946Z,99.08
2019-05-06T03:39:39.756Z,98.87
2019-05-06T03:40:45.102Z,98.87
2019-05-06T03:41:43.679Z,98.87
2019-05-06T03:42:42.665Z,98.97
2019-05-06T03:43:43.339Z,99.08
2019-05-06T03:44:43.611Z,99.18
2019-05-06T03:45:42.886Z,99.04
2019-05-06T03:46:43.036Z,98.97
2019-05-06T03:47:43.319Z,99.14
2019-05-06T03:48:44.222Z,99.14
2019-05-06T03:49:42.834Z,98.41
2019-05-06T03:50:44.030Z,98.83
2019-05-06T03:51:43.101Z,97.99
2019-05-06T03:52:43.133Z,98.05
2019-05-06T03:53:43.681Z,97.33
2019-05-06T03:54:45.306Z,97.89
2019-05-06T03:55:46.746Z,97.89
2019-05-06T03:56:43.451Z,96.80
2019-05-06T03:57:43.903Z,97.43
2019-05-06T03:58:43.575Z,96.08
2019-05-06T03:59:44.259Z,96.08
2019-05-06T04:00:43.838Z,96.43
2019-05-06T04:01:44.539Z,96.12
2019-05-06T04:02:43.770Z,96.22
2019-05-06T04:03:48.667Z,96.22
2019-05-06T04:04:46.004Z,95.91
2019-05-06T04:05:44.178Z,97.31
2019-05-06T04:06:44.361Z,97.00
2019-05-06T04:07:45.989Z,97.10
2019-05-06T04:08:45.772Z,97.10
2019-05-06T04:09:44.956Z,97.31
2019-05-06T04:10:45.160Z,97.62
2019-05-06T04:11:45.342Z,97.62
2019-05-06T04:12:46.544Z,97.62
2019-05-06T04:13:45.749Z,97.83
2019-05-06T04:14:45.927Z,98.35
2019-05-06T04:15:47.617Z,98.35
2019-05-06T04:16:47.293Z,97.94
2019-05-06T04:17:46.427Z,98.04
2019-05-06T04:18:46.628Z,98.14
2019-05-06T04:19:46.808Z,98.25
2019-05-06T04:20:47.000Z,98.25
2019-05-06T04:21:47.206Z,97.83
2019-05-06T04:22:47.385Z,97.20
2019-05-06T04:23:48.575Z,97.52
2019-05-06T04:24:47.692Z,97.72
2019-05-06T04:25:48.861Z,97.94
2019-05-06T04:26:48.030Z,97.58
2019-05-06T04:27:48.212Z,97.99
2019-05-06T04:28:48.380Z,98.20
2019-05-06T04:29:48.543Z,97.27
2019-05-06T04:30:48.727Z,98.16
2019-05-06T04:31:48.945Z,97.74
2019-05-06T04:32:49.089Z,97.22
2019-05-06T04:34:05.293Z,97.53
2019-05-06T04:34:53.444Z,97.33
2019-05-06T04:35:49.671Z,97.85
2019-05-06T04:36:49.879Z,97.95
2019-05-06T04:37:50.045Z,97.22
2019-05-06T04:38:50.217Z,97.43
2019-05-06T04:39:53.173Z,97.49
2019-05-06T04:40:53.526Z,97.85
2019-05-06T04:41:53.630Z,97.44
2019-05-06T04:42:52.745Z,97.70
2019-05-06T04:43:53.311Z,96.86
2019-05-06T04:44:53.088Z,97.13
2019-05-06T04:45:54.024Z,96.20
2019-05-06T04:46:54.402Z,96.20
2019-05-06T04:47:53.782Z,95.63
2019-05-06T04:48:53.865Z,96.04
2019-05-06T04:49:53.426Z,95.11
2019-05-06T04:50:53.624Z,95.07
2019-05-06T04:51:54.269Z,94.24
2019-05-06T04:52:53.753Z,94.76
2019-05-06T04:53:53.953Z,94.45
2019-05-06T04:54:53.497Z,95.07
2019-05-06T04:55:54.275Z,94.40
2019-05-06T04:56:53.850Z,94.71
2019-05-06T04:57:54.635Z,94.40
2019-05-06T04:58:54.115Z,94.09
2019-05-06T04:59:55.024Z,92.43
2019-05-06T05:00:54.279Z,92.63
2019-05-06T05:01:54.443Z,92.59
2019-05-06T05:02:55.116Z,93.84
2019-05-06T05:03:55.792Z,93.74
2019-05-06T05:04:54.925Z,93.95
2019-05-06T05:05:55.096Z,93.95
2019-05-06T05:06:55.263Z,93.84
2019-05-06T05:07:55.418Z,93.22
2019-05-06T05:08:55.627Z,91.66
2019-05-06T05:09:55.772Z,91.86
2019-05-06T05:10:55.922Z,92.14
2019-05-06T05:11:56.078Z,92.03
2019-05-06T05:12:56.257Z,91.99
2019-05-06T05:13:56.451Z,92.20
2019-05-06T05:14:56.603Z,92.51
2019-05-06T05:15:56.798Z,92.72
2019-05-06T05:16:56.960Z,91.89
2019-05-06T05:17:57.195Z,91.06
2019-05-06T05:18:57.252Z,90.75
2019-05-06T05:19:57.401Z,90.75
2019-05-06T05:20:57.560Z,90.33
2019-05-06T05:21:57.725Z,91.37
2019-05-06T05:22:57.932Z,89.81
2019-05-06T05:23:58.146Z,90.02
2019-05-06T05:24:58.356Z,91.16
2019-05-06T05:25:58.531Z,90.44
2019-05-06T05:26:58.691Z,90.12
2019-05-06T05:27:58.879Z,89.92
2019-05-06T05:28:59.087Z,89.50
2019-05-06T05:29:59.237Z,90.12
2019-05-06T05:30:59.390Z,91.16
2019-05-06T05:31:59.515Z,89.92
2019-05-06T05:32:59.682Z,89.61
2019-05-06T05:34:01.928Z,89.09
2019-05-06T05:35:02.107Z,89.50
2019-05-06T05:36:02.093Z,88.98
2019-05-06T05:37:00.347Z,89.19
2019-05-06T05:38:00.520Z,88.73
2019-05-06T05:39:03.095Z,89.50
2019-05-06T05:40:02.954Z,89.61
2019-05-06T05:41:02.968Z,88.73
2019-05-06T05:42:02.875Z,89.87
2019-05-06T05:43:02.898Z,89.46
2019-05-06T05:44:02.521Z,88.01
2019-05-06T05:45:02.880Z,89.25
2019-05-06T05:46:03.073Z,87.90
2019-05-06T05:47:03.526Z,88.42
2019-05-06T05:48:03.226Z,88.21
2019-05-06T05:49:02.954Z,88.73
2019-05-06T05:50:03.533Z,88.90
2019-05-06T05:51:03.312Z,87.24
2019-05-06T05:52:03.846Z,88.28
2019-05-06T05:53:02.985Z,86.93
2019-05-06T05:54:03.150Z,87.04
2019-05-06T05:55:03.288Z,86.83
2019-05-06T05:56:03.465Z,87.45
2019-05-06T05:57:03.635Z,86.93
2019-05-06T05:58:03.777Z,86.31
2019-05-06T05:59:03.914Z,85.79
2019-05-06T06:00:04.210Z,86.00
2019-05-06T06:01:04.408Z,86.21
2019-05-06T06:02:04.551Z,86.72
2019-05-06T06:03:07.101Z,86.27
2019-05-06T06:04:05.927Z,85.55
2019-05-06T06:05:05.164Z,86.00
2019-05-06T06:06:05.346Z,85.96
2019-05-06T06:07:05.519Z,85.55
2019-05-06T06:08:05.661Z,86.37
2019-05-06T06:09:05.840Z,86.23
2019-05-06T06:10:06.001Z,85.50
2019-05-06T06:11:06.153Z,84.68
2019-05-06T06:12:06.325Z,83.95
2019-05-06T06:13:06.463Z,83.99
2019-05-06T06:14:06.692Z,84.16
2019-05-06T06:15:06.841Z,83.95
2019-05-06T06:16:06.999Z,85.19
2019-05-06T06:17:07.182Z,85.26
2019-05-06T06:18:07.334Z,84.33
2019-05-06T06:19:07.469Z,83.19
2019-05-06T06:20:07.656Z,82.67
2019-05-06T06:21:17.568Z,83.91
2019-05-06T06:22:11.801Z,84.53
2019-05-06T06:23:08.295Z,83.56
2019-05-06T06:24:08.439Z,83.67
2019-05-06T06:25:08.598Z,82.95
2019-05-06T06:26:08.731Z,83.87
2019-05-06T06:27:08.866Z,82.70
2019-05-06T06:28:09.073Z,82.18
2019-05-06T06:29:09.146Z,84.77
2019-05-06T06:30:09.301Z,83.84
2019-05-06T06:31:09.454Z,84.15
2019-05-06T06:32:09.602Z,80.84
2019-05-06T06:33:09.805Z,81.29
2019-05-06T06:34:09.963Z,82.53
2019-05-06T06:35:14.142Z,83.77
2019-05-06T06:36:12.297Z,83.84
2019-05-06T06:37:13.236Z,81.46
2019-05-06T06:38:12.295Z,82.39
2019-05-06T06:39:12.472Z,83.01
2019-05-06T06:40:13.002Z,82.80
2019-05-06T06:41:12.131Z,81.94
2019-05-06T06:42:12.743Z,82.25
2019-05-06T06:43:12.489Z,81.25
2019-05-06T06:44:13.221Z,81.63
2019-05-06T06:45:12.809Z,81.49
2019-05-06T06:46:12.659Z,82.90
2019-05-06T06:47:13.137Z,81.87
2019-05-06T06:48:12.434Z,82.04
2019-05-06T06:49:13.532Z,81.63
2019-05-06T06:50:12.729Z,81.77
2019-05-06T06:51:12.911Z,80.94
2019-05-06T06:52:14.952Z,80.63
2019-05-06T06:53:14.380Z,80.94
2019-05-06T06:54:13.439Z,81.87
2019-05-06T06:55:13.604Z,82.39
2019-05-06T06:56:13.807Z,80.84
2019-05-06T06:57:13.967Z,82.50
2019-05-06T06:58:14.110Z,81.42
2019-05-06T06:59:14.284Z,80.94
2019-05-06T07:00:14.429Z,81.01
2019-05-06T07:01:14.598Z,80.90
2019-05-06T07:02:14.759Z,82.25
2019-05-06T07:03:14.896Z,80.74
2019-05-06T07:04:15.055Z,81.94
2019-05-06T07:05:24.917Z,81.05
2019-05-06T07:06:17.335Z,80.60
2019-05-06T07:07:15.570Z,81.32
2019-05-06T07:08:16.759Z,81.94
2019-05-06T07:09:15.898Z,82.10
2019-05-06T07:10:16.053Z,80.76
2019-05-06T07:11:16.221Z,80.15
2019-05-06T07:12:16.469Z,81.35
2019-05-06T07:13:16.538Z,79.83
2019-05-06T07:14:16.716Z,81.07
2019-05-06T07:15:16.880Z,81.24
2019-05-06T07:16:17.044Z,79.59
2019-05-06T07:17:17.226Z,80.73
2019-05-06T07:18:17.396Z,79.49
2019-05-06T07:19:17.556Z,79.80
2019-05-06T07:20:17.745Z,80.79
2019-05-06T07:21:17.929Z,78.42
2019-05-06T07:22:18.106Z,77.70
2019-05-06T07:23:18.272Z,79.08
2019-05-06T07:24:18.464Z,80.79
2019-05-06T07:25:18.663Z,79.35
2019-05-06T07:26:18.835Z,79.31
2019-05-06T07:27:18.998Z,79.62
2019-05-06T07:28:19.170Z,76.94
2019-05-06T07:29:24.255Z,77.49
2019-05-06T07:30:23.018Z,77.80
2019-05-06T07:31:23.817Z,77.70
2019-05-06T07:32:23.217Z,78.28
2019-05-06T07:33:22.649Z,78.08
2019-05-06T07:34:22.729Z,75.91
2019-05-06T07:35:22.424Z,78.04
2019-05-06T07:36:22.761Z,76.46
2019-05-06T07:37:22.126Z,75.70
2019-05-06T07:38:23.109Z,76.73
2019-05-06T07:39:24.055Z,77.62
2019-05-06T07:40:22.354Z,74.33
2019-05-06T07:41:23.494Z,73.36
2019-05-06T07:42:22.737Z,73.68
2019-05-06T07:43:22.858Z,73.33
2019-05-06T07:44:22.568Z,71.17
2019-05-06T07:45:23.256Z,70.97
2019-05-06T07:46:23.564Z,71.45
2019-05-06T07:47:23.959Z,73.19
2019-05-06T07:48:23.691Z,70.79
2019-05-06T07:49:23.548Z,69.67
2019-05-06T07:50:23.984Z,69.70
2019-05-06T07:51:23.847Z,71.17
2019-05-06T07:52:24.264Z,73.02
2019-05-06T07:53:23.487Z,71.69
2019-05-06T07:54:23.616Z,72.17
2019-05-06T07:55:23.795Z,72.89
2019-05-06T07:56:23.958Z,70.25
2019-05-06T07:57:24.127Z,70.69
2019-05-06T07:58:24.296Z,71.66
2019-05-06T07:59:24.455Z,70.86
2019-05-06T08:00:24.598Z,71.45
2019-05-06T08:01:26.171Z,71.75
2019-05-06T08:02:25.881Z,69.05
2019-05-06T08:03:25.166Z,70.59
2019-05-06T08:04:25.333Z,68.33
2019-05-06T08:05:25.496Z,70.25
2019-05-06T08:06:25.625Z,67.96
2019-05-06T08:07:25.778Z,70.01
2019-05-06T08:08:25.929Z,69.26
2019-05-06T08:09:26.116Z,68.51
2019-05-06T08:10:26.298Z,64.82
2019-05-06T08:11:26.466Z,65.44
2019-05-06T08:12:26.627Z,65.44
2019-05-06T08:13:26.813Z,66.05
2019-05-06T08:14:26.963Z,65.23
2019-05-06T08:15:27.141Z,66.40
2019-05-06T08:16:27.328Z,65.45
2019-05-06T08:17:27.488Z,65.80
2019-05-06T08:18:27.641Z,62.01
2019-05-06T08:19:27.841Z,61.09
2019-05-06T08:20:27.984Z,62.11
2019-05-06T08:21:28.189Z,61.86
2019-05-06T08:22:28.355Z,64.39
2019-05-06T08:23:28.572Z,62.93
2019-05-06T08:24:28.735Z,61.03
2019-05-06T08:25:28.955Z,59.64
2019-05-06T08:26:29.179Z,61.24
2019-05-06T08:27:29.355Z,61.72
2019-05-06T08:28:38.631Z,61.19
2019-05-06T08:29:33.028Z,62.18
2019-05-06T08:30:29.844Z,61.34
2019-05-06T08:31:29.965Z,61.92
2019-05-06T08:32:32.175Z,60.57
2019-05-06T08:33:32.572Z,61.76
2019-05-06T08:34:30.490Z,62.07
2019-05-06T08:35:30.646Z,61.73
2019-05-06T08:36:32.822Z,59.14
2019-05-06T08:37:32.161Z,58.65
2019-05-06T08:38:32.720Z,59.50
2019-05-06T08:39:32.773Z,60.85
2019-05-06T08:40:32.181Z,61.63
2019-05-06T08:41:33.324Z,62.35
2019-05-06T08:42:32.923Z,63.44
2019-05-06T08:43:33.289Z,60.02
2019-05-06T08:44:32.433Z,60.94
2019-05-06T08:45:32.658Z,62.17
2019-05-06T08:46:32.996Z,63.02
2019-05-06T08:47:33.081Z,62.58
2019-05-06T08:48:34.295Z,61.48
2019-05-06T08:49:33.457Z,63.87
2019-05-06T08:50:33.642Z,62.05
2019-05-06T08:51:33.830Z,64.41
2019-05-06T08:52:34.009Z,63.39
2019-05-06T08:53:34.324Z,65.84
2019-05-06T08:54:34.384Z,66.77
2019-05-06T08:55:34.603Z,63.82
2019-05-06T08:56:34.797Z,64.82
2019-05-06T08:57:34.970Z,63.93
2019-05-06T08:58:35.178Z,64.51
2019-05-06T08:59:35.343Z,61.35
2019-05-06T09:00:35.559Z,60.72
2019-05-06T09:01:35.713Z,58.45
2019-05-06T09:02:35.874Z,58.67
2019-05-06T09:03:36.047Z,54.82
2019-05-06T09:04:36.251Z,56.23
2019-05-06T09:05:36.443Z,54.13
2019-05-06T09:06:36.707Z,54.46
2019-05-06T09:07:36.771Z,54.87
2019-05-06T09:08:36.936Z,57.52
2019-05-06T09:09:37.152Z,51.95
2019-05-06T09:10:37.331Z,53.72
2019-05-06T09:11:37.486Z,55.33
2019-05-06T09:12:37.640Z,57.91
2019-05-06T09:13:37.869Z,61.26
2019-05-06T09:14:38.071Z,58.22
2019-05-06T09:15:38.274Z,60.02
2019-05-06T09:16:38.501Z,60.63
2019-05-06T09:17:38.670Z,60.76
2019-05-06T09:18:38.856Z,60.21
2019-05-06T09:19:39.050Z,62.05
2019-05-06T09:20:39.235Z,61.02
2019-05-06T09:21:43.347Z,62.15
2019-05-06T09:22:42.937Z,59.05
2019-05-06T09:23:42.195Z,60.56
2019-05-06T09:24:39.965Z,60.68
2019-05-06T09:25:42.332Z,56.15
2019-05-06T09:26:42.935Z,57.84
2019-05-06T09:27:42.138Z,55.97
2019-05-06T09:28:42.658Z,55.28
2019-05-06T09:29:42.994Z,57.32
2019-05-06T09:30:43.081Z,58.07
2019-05-06T09:31:42.772Z,57.53
2019-05-06T09:32:42.939Z,55.30
2019-05-06T09:33:42.482Z,56.63
2019-05-06T09:34:43.237Z,54.31
2019-05-06T09:35:42.927Z,54.72
2019-05-06T09:36:51.365Z,55.02
2019-05-06T09:37:44.353Z,57.97
2019-05-06T09:38:42.635Z,56.53
2019-05-06T09:39:43.221Z,58.07
2019-05-06T09:40:43.955Z,57.81
2019-05-06T09:41:46.608Z,59.01
2019-05-06T09:42:45.209Z,59.19
2019-05-06T09:43:43.582Z,60.03
2019-05-06T09:44:43.644Z,59.32
2019-05-06T09:45:43.824Z,59.94
2019-05-06T09:46:43.983Z,58.58
2019-05-06T09:47:44.165Z,55.10
2019-05-06T09:48:44.327Z,54.72
2019-05-06T09:49:44.497Z,51.88
2019-05-06T09:50:46.277Z,54.61
2019-05-06T09:51:45.808Z,53.42
2019-05-06T09:52:44.993Z,52.80
2019-05-06T09:53:45.178Z,53.13
2019-05-06T09:54:45.368Z,49.16
2019-05-06T09:55:45.573Z,49.46
2019-05-06T09:56:45.770Z,48.71
2019-05-06T09:57:45.928Z,51.97
2019-05-06T09:58:46.137Z,53.59
2019-05-06T09:59:46.336Z,46.55
2019-05-06T10:00:46.537Z,49.52
2019-05-06T10:01:46.778Z,47.64
2019-05-06T10:02:49.504Z,44.18
2019-05-06T10:03:48.126Z,46.01
2019-05-06T10:04:47.285Z,47.44
2019-05-06T10:05:47.442Z,47.34
2019-05-06T10:06:56.257Z,49.55
2019-05-06T10:07:49.790Z,44.54
2019-05-06T10:08:47.986Z,45.46
2019-05-06T10:09:48.129Z,44.69
2019-05-06T10:10:56.773Z,46.17
2019-05-06T10:11:52.418Z,50.85
2019-05-06T10:12:48.627Z,49.40
2019-05-06T10:13:48.820Z,43.49
2019-05-06T10:14:49.027Z,46.19
2019-05-06T10:15:49.196Z,44.32
2019-05-06T10:16:49.433Z,45.46
2019-05-06T10:17:49.630Z,46.53
2019-05-06T10:18:52.265Z,47.25
2019-05-06T10:19:50.083Z,47.38
2019-05-06T10:20:50.278Z,45.01
2019-05-06T10:21:50.446Z,46.22
2019-05-06T10:22:52.469Z,48.22
2019-05-06T10:23:52.788Z,49.79
2019-05-06T10:24:52.289Z,50.23
2019-05-06T10:25:52.404Z,50.63
2019-05-06T10:26:52.512Z,50.12
2019-05-06T10:27:52.483Z,51.63
2019-05-06T10:28:52.862Z,49.87
2019-05-06T10:29:52.308Z,49.77
2019-05-06T10:30:53.237Z,43.59
2019-05-06T10:31:52.550Z,45.03
2019-05-06T10:32:53.627Z,43.12
2019-05-06T10:33:53.215Z,44.26
2019-05-06T10:34:53.913Z,39.95
2019-05-06T10:35:53.111Z,40.19
2019-05-06T10:36:54.349Z,38.07
2019-05-06T10:37:53.529Z,37.70
2019-05-06T10:38:53.751Z,37.23
2019-05-06T10:39:53.959Z,36.13
2019-05-06T10:41:01.061Z,35.33
2019-05-06T10:41:56.304Z,39.65
2019-05-06T10:42:54.484Z,35.58
2019-05-06T10:43:54.743Z,35.70
2019-05-06T10:44:54.910Z,37.13
2019-05-06T10:45:55.136Z,40.45
2019-05-06T10:46:55.327Z,40.77
2019-05-06T10:47:55.499Z,42.10
2019-05-06T10:48:55.720Z,44.60
2019-05-06T10:49:55.929Z,43.24
2019-05-06T10:50:56.272Z,46.77
2019-05-06T10:51:56.316Z,50.26
2019-05-06T10:52:56.497Z,46.30
2019-05-06T10:53:56.663Z,42.31
2019-05-06T10:54:56.883Z,42.76
2019-05-06T10:55:57.043Z,41.80
2019-05-06T10:56:57.594Z,41.78
2019-05-06T10:57:58.407Z,44.35
2019-05-06T10:58:57.529Z,39.35
2019-05-06T10:59:57.707Z,40.42
2019-05-06T11:00:57.868Z,38.32
2019-05-06T11:01:58.016Z,37.80
2019-05-06T11:02:58.153Z,38.32
2019-05-06T11:03:58.302Z,38.40
2019-05-06T11:04:58.482Z,39.90
2019-05-06T11:05:58.664Z,37.82
2019-05-06T11:06:58.824Z,38.13
2019-05-06T11:07:58.994Z,38.57
2019-05-06T11:08:59.177Z,40.05
2019-05-06T11:09:59.387Z,40.59
2019-05-06T11:11:12.463Z,45.23
2019-05-06T11:12:03.242Z,49.55
2019-05-06T11:12:59.926Z,47.20
2019-05-06T11:14:00.138Z,52.32
2019-05-06T11:15:03.217Z,49.90
2019-05-06T11:16:03.188Z,52.25
2019-05-06T11:17:04.937Z,52.45
2019-05-06T11:18:04.009Z,49.74
2019-05-06T11:19:04.901Z,51.48
2019-05-06T11:20:03.448Z,54.61
2019-05-06T11:21:03.518Z,54.61
2019-05-06T11:22:03.677Z,52.67
2019-05-06T11:23:02.728Z,52.14
2019-05-06T11:24:06.016Z,51.17
2019-05-06T11:25:03.148Z,47.35
2019-05-06T11:26:03.376Z,46.06
2019-05-06T11:27:03.471Z,44.54
2019-05-06T11:28:03.577Z,43.44
2019-05-06T11:29:05.098Z,45.46
2019-05-06T11:30:03.939Z,43.81
2019-05-06T11:31:03.120Z,46.00
2019-05-06T11:32:03.321Z,45.98
2019-05-06T11:33:04.788Z,42.29
2019-05-06T11:34:04.716Z,42.01
2019-05-06T11:35:04.013Z,41.91
2019-05-06T11:36:04.113Z,46.00
2019-05-06T11:37:04.314Z,45.11
2019-05-06T11:38:04.558Z,47.20
2019-05-06T11:39:04.754Z,49.46
2019-05-06T11:40:04.984Z,48.69
2019-05-06T11:41:05.180Z,47.21
2019-05-06T11:42:23.778Z,50.74
2019-05-06T11:43:07.530Z,51.33
2019-05-06T11:44:08.837Z,51.35
2019-05-06T11:45:05.835Z,52.15
2019-05-06T11:46:06.072Z,49.90
2019-05-06T11:47:06.147Z,49.62
2019-05-06T11:48:06.333Z,50.87
2019-05-06T11:49:06.587Z,52.68
2019-05-06T11:50:06.706Z,50.31
2019-05-06T11:51:06.898Z,51.10
2019-05-06T11:52:07.125Z,50.84
2019-05-06T11:53:07.367Z,51.84
2019-05-06T11:54:16.489Z,51.31
2019-05-06T11:55:09.571Z,52.28
2019-05-06T11:56:07.711Z,49.02
2019-05-06T11:57:08.911Z,47.75
2019-05-06T11:58:08.037Z,46.33
2019-05-06T11:59:08.195Z,50.01
2019-05-06T12:00:08.357Z,49.81
2019-05-06T12:01:08.609Z,49.61
2019-05-06T12:02:08.648Z,49.53
2019-05-06T12:03:08.841Z,49.76
2019-05-06T12:04:09.001Z,49.55
2019-05-06T12:05:09.168Z,47.36
2019-05-06T12:06:09.335Z,49.62
2019-05-06T12:07:12.278Z,50.28
2019-05-06T12:08:15.208Z,51.53
2019-05-06T12:09:13.941Z,53.98
2019-05-06T12:10:12.681Z,56.02
2019-05-06T12:11:12.625Z,54.18
2019-05-06T12:12:12.617Z,54.21
2019-05-06T12:13:12.270Z,57.29
2019-05-06T12:14:12.409Z,57.84
2019-05-06T12:15:12.584Z,58.89
2019-05-06T12:16:14.149Z,57.66
2019-05-06T12:17:12.751Z,59.14
2019-05-06T12:18:12.560Z,59.04
2019-05-06T12:19:13.128Z,59.96
2019-05-06T12:20:13.074Z,61.73
2019-05-06T12:21:18.900Z,59.92
2019-05-06T12:22:13.168Z,62.07
2019-05-06T12:23:15.612Z,62.07
2019-05-06T12:24:13.506Z,64.83
2019-05-06T12:25:15.549Z,64.86
2019-05-06T12:26:13.956Z,65.00
2019-05-06T12:27:13.100Z,64.48
2019-05-06T12:28:17.450Z,64.48
2019-05-06T12:29:13.469Z,66.63
2019-05-06T12:30:13.611Z,62.63
2019-05-06T12:31:13.757Z,62.19
2019-05-06T12:32:13.950Z,61.27
2019-05-06T12:33:14.164Z,62.61
2019-05-06T12:34:14.744Z,63.43
2019-05-06T12:35:15.453Z,60.97
2019-05-06T12:36:14.607Z,61.89
2019-05-06T12:37:14.777Z,59.64
2019-05-06T12:38:26.699Z,60.76
2019-05-06T12:39:18.968Z,59.53
2019-05-06T12:40:16.286Z,61.48
2019-05-06T12:41:15.392Z,59.23
2019-05-06T12:42:16.676Z,61.15
2019-05-06T12:43:15.682Z,59.30
2019-05-06T12:44:15.871Z,59.99
2019-05-06T12:45:16.002Z,59.76
2019-05-06T12:46:16.160Z,59.14
2019-05-06T12:47:16.300Z,59.76
2019-05-06T12:48:16.448Z,59.66
2019-05-06T12:49:16.591Z,59.14
2019-05-06T12:50:16.815Z,57.92
2019-05-06T12:51:16.958Z,59.63
2019-05-06T12:52:17.077Z,60.65
2019-05-06T12:53:17.274Z,60.01
2019-05-06T12:54:17.448Z,59.30